SWA3354 KBWI-KMYR
Flight info
| Callsign | SWA3354 |
|---|---|
| Flight time | 0h 57m |
| Altitude | 32000 |
| Route | CONLE5 SCOOB PAACK WYLMS |
| Aircraft | B738/M-SDE2E3FGHIRWXY/LB1 |
Departure
| Time | 2026-04-23 16:33 |
|---|---|
| Airport | Baltimore/Washington International Thurgood Marshall Airport (KBWI) |
Arrival
| Time | 2026-04-23 17:31 |
|---|---|
| Airport | Myrtle Beach International Airport (KMYR) |
| Time | Latitude | Longitude | Altitude | Speed | Heading |
|---|---|---|---|---|---|
| 2026-04-23 16:09 | 39.17643 | -76.66980 | 155 ft | 0 kts | 85° |
| 2026-04-23 16:24 | 39.17641 | -76.67003 | 155 ft | 3 kts | 82° |
| 2026-04-23 16:25 | 39.17638 | -76.67032 | 155 ft | 3 kts | 82° |
| 2026-04-23 16:25 | 39.17636 | -76.67061 | 155 ft | 3 kts | 94° |
| 2026-04-23 16:25 | 39.17640 | -76.67086 | 155 ft | 3 kts | 136° |
| 2026-04-23 16:25 | 39.17643 | -76.67090 | 155 ft | 1 kts | 143° |
| 2026-04-23 16:28 | 39.17641 | -76.67088 | 155 ft | 1 kts | 143° |
| 2026-04-23 16:28 | 39.17619 | -76.67067 | 155 ft | 7 kts | 143° |
| 2026-04-23 16:28 | 39.17575 | -76.67023 | 155 ft | 9 kts | 137° |
| 2026-04-23 16:28 | 39.17538 | -76.66934 | 155 ft | 13 kts | 101° |
| 2026-04-23 16:29 | 39.17490 | -76.66841 | 154 ft | 13 kts | 144° |
| 2026-04-23 16:29 | 39.17459 | -76.66731 | 153 ft | 15 kts | 94° |
| 2026-04-23 16:29 | 39.17432 | -76.66605 | 153 ft | 15 kts | 150° |
| 2026-04-23 16:29 | 39.17331 | -76.66599 | 151 ft | 15 kts | 184° |
| 2026-04-23 16:30 | 39.17232 | -76.66608 | 152 ft | 14 kts | 184° |
| 2026-04-23 16:30 | 39.17123 | -76.66616 | 151 ft | 17 kts | 182° |
| 2026-04-23 16:30 | 39.17017 | -76.66550 | 150 ft | 18 kts | 144° |
| 2026-04-23 16:30 | 39.16910 | -76.66450 | 147 ft | 21 kts | 144° |
| 2026-04-23 16:31 | 39.16780 | -76.66330 | 143 ft | 22 kts | 144° |
| 2026-04-23 16:31 | 39.16665 | -76.66224 | 137 ft | 17 kts | 144° |
| 2026-04-23 16:31 | 39.16574 | -76.66139 | 135 ft | 13 kts | 144° |
| 2026-04-23 16:31 | 39.16513 | -76.66119 | 136 ft | 9 kts | 202° |
| 2026-04-23 16:32 | 39.16472 | -76.66173 | 141 ft | 8 kts | 232° |
| 2026-04-23 16:32 | 39.16438 | -76.66231 | 143 ft | 8 kts | 240° |
| 2026-04-23 16:32 | 39.16470 | -76.66284 | 144 ft | 13 kts | 325° |
| 2026-04-23 16:32 | 39.16741 | -76.66534 | 143 ft | 84 kts | 324° |
| 2026-04-23 16:33 | 39.17400 | -76.67146 | 150 ft | 147 kts | 324° |
| 2026-04-23 16:33 | 39.18330 | -76.68003 | 474 ft | 171 kts | 325° |
| 2026-04-23 16:33 | 39.19234 | -76.68989 | 1310 ft | 170 kts | 300° |
| 2026-04-23 16:33 | 39.19424 | -76.70535 | 1808 ft | 192 kts | 255° |
| 2026-04-23 16:34 | 39.18598 | -76.71940 | 2285 ft | 213 kts | 216° |
| 2026-04-23 16:34 | 39.17125 | -76.72516 | 2633 ft | 234 kts | 178° |
| 2026-04-23 16:34 | 39.15540 | -76.71875 | 3241 ft | 240 kts | 154° |
| 2026-04-23 16:34 | 39.14028 | -76.70945 | 3926 ft | 245 kts | 158° |
| 2026-04-23 16:35 | 39.12446 | -76.70045 | 4439 ft | 259 kts | 158° |
| 2026-04-23 16:35 | 39.10716 | -76.69073 | 4772 ft | 280 kts | 158° |
| 2026-04-23 16:35 | 39.08887 | -76.68086 | 5402 ft | 288 kts | 159° |
| 2026-04-23 16:35 | 39.07031 | -76.67102 | 6240 ft | 292 kts | 160° |
| 2026-04-23 16:36 | 39.05773 | -76.66439 | 6646 ft | 294 kts | 160° |
| 2026-04-23 16:36 | 39.03407 | -76.64681 | 7393 ft | 303 kts | 134° |
| 2026-04-23 16:36 | 39.02468 | -76.63299 | 7997 ft | 303 kts | 131° |
| 2026-04-23 16:36 | 39.01119 | -76.61230 | 8785 ft | 307 kts | 130° |
| 2026-04-23 16:37 | 38.99725 | -76.59097 | 9539 ft | 313 kts | 131° |
| 2026-04-23 16:37 | 38.98297 | -76.56931 | 10281 ft | 319 kts | 131° |
| 2026-04-23 16:37 | 38.96823 | -76.54713 | 10569 ft | 341 kts | 131° |
| 2026-04-23 16:37 | 38.95212 | -76.52305 | 10761 ft | 364 kts | 133° |
| 2026-04-23 16:38 | 38.93212 | -76.50249 | 11073 ft | 378 kts | 156° |
| 2026-04-23 16:38 | 38.90679 | -76.49368 | 11686 ft | 377 kts | 179° |
| 2026-04-23 16:38 | 38.88121 | -76.49666 | 12441 ft | 372 kts | 196° |
| 2026-04-23 16:38 | 38.85577 | -76.50414 | 13170 ft | 375 kts | 197° |
| 2026-04-23 16:39 | 38.83056 | -76.51333 | 13815 ft | 378 kts | 203° |
| 2026-04-23 16:39 | 38.80620 | -76.52543 | 14338 ft | 382 kts | 205° |
| 2026-04-23 16:39 | 38.78139 | -76.53864 | 14989 ft | 385 kts | 206° |
| 2026-04-23 16:39 | 38.75672 | -76.55157 | 15610 ft | 389 kts | 205° |
| 2026-04-23 16:40 | 38.73120 | -76.56446 | 16196 ft | 394 kts | 204° |
| 2026-04-23 16:40 | 38.70563 | -76.57706 | 16764 ft | 399 kts | 204° |
| 2026-04-23 16:40 | 38.67938 | -76.58980 | 17357 ft | 404 kts | 203° |
| 2026-04-23 16:40 | 38.65271 | -76.60224 | 17915 ft | 410 kts | 202° |
| 2026-04-23 16:41 | 38.62559 | -76.61468 | 18454 ft | 415 kts | 202° |
| 2026-04-23 16:41 | 38.59850 | -76.62707 | 18941 ft | 419 kts | 202° |
| 2026-04-23 16:41 | 38.57079 | -76.63978 | 19463 ft | 422 kts | 202° |
| 2026-04-23 16:41 | 38.54307 | -76.65253 | 20013 ft | 425 kts | 202° |
| 2026-04-23 16:42 | 38.51546 | -76.66525 | 20504 ft | 428 kts | 202° |
| 2026-04-23 16:42 | 38.48726 | -76.67826 | 20988 ft | 432 kts | 202° |
| 2026-04-23 16:42 | 38.45928 | -76.69115 | 21463 ft | 436 kts | 202° |
| 2026-04-23 16:42 | 38.42996 | -76.70461 | 21953 ft | 439 kts | 201° |
| 2026-04-23 16:43 | 38.40015 | -76.71261 | 22358 ft | 450 kts | 183° |
| 2026-04-23 16:43 | 38.36863 | -76.70925 | 22863 ft | 454 kts | 173° |
| 2026-04-23 16:43 | 38.33757 | -76.70368 | 23320 ft | 457 kts | 173° |
| 2026-04-23 16:43 | 38.30583 | -76.69792 | 23729 ft | 461 kts | 173° |
| 2026-04-23 16:44 | 38.27379 | -76.69231 | 24088 ft | 464 kts | 173° |
| 2026-04-23 16:44 | 38.24197 | -76.68697 | 24470 ft | 466 kts | 174° |
| 2026-04-23 16:44 | 38.20949 | -76.68170 | 24853 ft | 469 kts | 174° |
| 2026-04-23 16:44 | 38.17697 | -76.67649 | 25218 ft | 472 kts | 174° |
| 2026-04-23 16:45 | 38.14446 | -76.67130 | 25573 ft | 474 kts | 174° |
| 2026-04-23 16:45 | 38.11186 | -76.66608 | 25914 ft | 477 kts | 174° |
| 2026-04-23 16:45 | 38.07876 | -76.66148 | 26296 ft | 478 kts | 177° |
| 2026-04-23 16:45 | 38.04533 | -76.65872 | 26655 ft | 480 kts | 179° |
| 2026-04-23 16:46 | 38.01223 | -76.65685 | 26978 ft | 482 kts | 179° |
| 2026-04-23 16:46 | 37.97833 | -76.65515 | 27297 ft | 485 kts | 179° |
| 2026-04-23 16:46 | 37.94482 | -76.65336 | 27619 ft | 487 kts | 179° |
| 2026-04-23 16:46 | 37.91078 | -76.65135 | 27943 ft | 490 kts | 179° |
| 2026-04-23 16:47 | 37.87647 | -76.64915 | 28257 ft | 492 kts | 179° |
| 2026-04-23 16:47 | 37.84249 | -76.64688 | 28588 ft | 494 kts | 179° |
| 2026-04-23 16:47 | 37.80789 | -76.64452 | 28903 ft | 496 kts | 179° |
| 2026-04-23 16:47 | 37.77379 | -76.64220 | 29286 ft | 496 kts | 179° |
| 2026-04-23 16:48 | 37.73932 | -76.63986 | 29747 ft | 494 kts | 179° |
| 2026-04-23 16:48 | 37.70498 | -76.63755 | 30205 ft | 493 kts | 179° |
| 2026-04-23 16:48 | 37.67060 | -76.63525 | 30552 ft | 492 kts | 179° |
| 2026-04-23 16:48 | 37.63631 | -76.63296 | 30851 ft | 493 kts | 179° |
| 2026-04-23 16:49 | 37.61355 | -76.63145 | 31063 ft | 493 kts | 179° |
| 2026-04-23 16:49 | 37.56867 | -76.63641 | 31440 ft | 485 kts | 200° |
| 2026-04-23 16:49 | 37.53661 | -76.64912 | 31855 ft | 482 kts | 201° |
| 2026-04-23 16:49 | 37.50471 | -76.66218 | 32071 ft | 483 kts | 202° |
| 2026-04-23 16:50 | 37.44038 | -76.68818 | 32059 ft | 488 kts | 201° |
| 2026-04-23 16:50 | 37.37613 | -76.71327 | 32055 ft | 481 kts | 200° |
| 2026-04-23 16:51 | 37.31186 | -76.73795 | 32074 ft | 482 kts | 200° |
| 2026-04-23 16:51 | 37.24782 | -76.76245 | 32078 ft | 483 kts | 200° |
| 2026-04-23 16:52 | 37.18359 | -76.78701 | 32065 ft | 483 kts | 200° |
| 2026-04-23 16:52 | 37.11940 | -76.81153 | 32081 ft | 483 kts | 200° |
| 2026-04-23 16:53 | 37.05509 | -76.83605 | 32078 ft | 484 kts | 200° |
| 2026-04-23 16:53 | 36.99048 | -76.86065 | 32081 ft | 484 kts | 200° |
| 2026-04-23 16:54 | 36.92626 | -76.88505 | 32091 ft | 483 kts | 200° |
| 2026-04-23 16:54 | 36.86171 | -76.90953 | 32095 ft | 483 kts | 200° |
| 2026-04-23 16:55 | 36.79761 | -76.93380 | 32098 ft | 482 kts | 200° |
| 2026-04-23 16:55 | 36.73344 | -76.95805 | 32088 ft | 482 kts | 200° |
| 2026-04-23 16:56 | 36.66934 | -76.98224 | 32103 ft | 481 kts | 200° |
| 2026-04-23 16:56 | 36.60539 | -77.00633 | 32109 ft | 481 kts | 200° |
| 2026-04-23 16:57 | 36.54128 | -77.03044 | 32105 ft | 481 kts | 200° |
| 2026-04-23 16:57 | 36.47748 | -77.05439 | 32099 ft | 480 kts | 200° |
| 2026-04-23 16:58 | 36.41368 | -77.07830 | 32112 ft | 480 kts | 200° |
| 2026-04-23 16:58 | 36.34953 | -77.10229 | 32109 ft | 480 kts | 200° |
| 2026-04-23 16:59 | 36.28580 | -77.12610 | 32105 ft | 480 kts | 200° |
| 2026-04-23 16:59 | 36.22191 | -77.14992 | 32110 ft | 480 kts | 200° |
| 2026-04-23 17:00 | 36.15778 | -77.17379 | 32108 ft | 480 kts | 200° |
| 2026-04-23 17:00 | 36.09396 | -77.19750 | 32113 ft | 480 kts | 200° |
| 2026-04-23 17:01 | 36.03006 | -77.22121 | 32103 ft | 480 kts | 199° |
| 2026-04-23 17:01 | 35.96618 | -77.24487 | 32109 ft | 480 kts | 199° |
| 2026-04-23 17:02 | 35.90326 | -77.27106 | 32111 ft | 477 kts | 206° |
| 2026-04-23 17:02 | 35.84285 | -77.30550 | 32106 ft | 477 kts | 208° |
| 2026-04-23 17:03 | 35.78311 | -77.34069 | 32104 ft | 477 kts | 208° |
| 2026-04-23 17:03 | 35.72324 | -77.37525 | 32112 ft | 477 kts | 208° |
| 2026-04-23 17:04 | 35.66271 | -77.40963 | 32111 ft | 477 kts | 207° |
| 2026-04-23 17:04 | 35.60245 | -77.44363 | 32112 ft | 477 kts | 207° |
| 2026-04-23 17:05 | 35.54216 | -77.47761 | 32101 ft | 477 kts | 207° |
| 2026-04-23 17:05 | 35.48196 | -77.51150 | 32123 ft | 476 kts | 207° |
| 2026-04-23 17:06 | 35.42190 | -77.54528 | 32126 ft | 475 kts | 207° |
| 2026-04-23 17:06 | 35.36159 | -77.57914 | 32128 ft | 475 kts | 207° |
| 2026-04-23 17:07 | 35.30177 | -77.61267 | 32125 ft | 474 kts | 207° |
| 2026-04-23 17:07 | 35.24192 | -77.64616 | 32130 ft | 473 kts | 207° |
| 2026-04-23 17:08 | 35.18186 | -77.67971 | 32131 ft | 473 kts | 207° |
| 2026-04-23 17:08 | 35.12214 | -77.71302 | 32121 ft | 473 kts | 207° |
| 2026-04-23 17:09 | 35.06238 | -77.74630 | 31628 ft | 477 kts | 207° |
| 2026-04-23 17:09 | 35.03223 | -77.76307 | 31224 ft | 470 kts | 207° |
| 2026-04-23 17:09 | 35.00283 | -77.77939 | 30747 ft | 467 kts | 207° |
| 2026-04-23 17:10 | 34.97338 | -77.79573 | 30286 ft | 463 kts | 207° |
| 2026-04-23 17:10 | 34.94400 | -77.81203 | 29747 ft | 460 kts | 207° |
| 2026-04-23 17:10 | 34.91525 | -77.82796 | 29230 ft | 456 kts | 207° |
| 2026-04-23 17:10 | 34.88644 | -77.84392 | 28740 ft | 451 kts | 207° |
| 2026-04-23 17:11 | 34.85789 | -77.85972 | 28275 ft | 446 kts | 207° |
| 2026-04-23 17:11 | 34.83001 | -77.87515 | 27803 ft | 442 kts | 207° |
| 2026-04-23 17:11 | 34.80206 | -77.89060 | 27333 ft | 439 kts | 207° |
| 2026-04-23 17:11 | 34.77424 | -77.90596 | 26870 ft | 435 kts | 207° |
| 2026-04-23 17:12 | 34.74698 | -77.92101 | 26417 ft | 432 kts | 207° |
| 2026-04-23 17:12 | 34.71973 | -77.93605 | 25965 ft | 429 kts | 207° |
| 2026-04-23 17:12 | 34.69250 | -77.95106 | 25512 ft | 426 kts | 206° |
| 2026-04-23 17:12 | 34.66581 | -77.96576 | 25060 ft | 423 kts | 206° |
| 2026-04-23 17:13 | 34.63893 | -77.98056 | 24615 ft | 421 kts | 206° |
| 2026-04-23 17:13 | 34.61260 | -77.99504 | 24171 ft | 418 kts | 206° |
| 2026-04-23 17:13 | 34.58596 | -78.00968 | 23708 ft | 417 kts | 205° |
| 2026-04-23 17:13 | 34.55956 | -78.02418 | 23187 ft | 414 kts | 205° |
| 2026-04-23 17:14 | 34.53359 | -78.03843 | 22717 ft | 411 kts | 205° |
| 2026-04-23 17:14 | 34.50754 | -78.05272 | 22258 ft | 408 kts | 205° |
| 2026-04-23 17:14 | 34.48164 | -78.06691 | 21813 ft | 405 kts | 205° |
| 2026-04-23 17:14 | 34.45635 | -78.08076 | 21377 ft | 402 kts | 206° |
| 2026-04-23 17:15 | 34.43087 | -78.09470 | 20942 ft | 399 kts | 206° |
| 2026-04-23 17:15 | 34.40556 | -78.10854 | 20506 ft | 396 kts | 206° |
| 2026-04-23 17:15 | 34.38050 | -78.12224 | 20085 ft | 393 kts | 206° |
| 2026-04-23 17:15 | 34.35589 | -78.13569 | 19674 ft | 390 kts | 206° |
| 2026-04-23 17:16 | 34.33111 | -78.14921 | 19251 ft | 387 kts | 206° |
| 2026-04-23 17:16 | 34.30677 | -78.16250 | 18831 ft | 385 kts | 206° |
| 2026-04-23 17:16 | 34.28285 | -78.17701 | 18409 ft | 381 kts | 217° |
| 2026-04-23 17:16 | 34.26479 | -78.19953 | 18165 ft | 367 kts | 237° |
| 2026-04-23 17:17 | 34.25123 | -78.22494 | 17849 ft | 361 kts | 240° |
| 2026-04-23 17:17 | 34.23796 | -78.25077 | 17378 ft | 360 kts | 240° |
| 2026-04-23 17:17 | 34.22923 | -78.26787 | 17088 ft | 359 kts | 240° |
| 2026-04-23 17:17 | 34.21192 | -78.30188 | 16569 ft | 355 kts | 240° |
| 2026-04-23 17:18 | 34.18703 | -78.35223 | 15737 ft | 342 kts | 248° |
| 2026-04-23 17:18 | 34.17882 | -78.37901 | 15151 ft | 337 kts | 254° |
| 2026-04-23 17:18 | 34.17239 | -78.40617 | 14458 ft | 335 kts | 258° |
| 2026-04-23 17:19 | 34.16746 | -78.43362 | 13820 ft | 333 kts | 260° |
| 2026-04-23 17:19 | 34.16293 | -78.46096 | 13192 ft | 329 kts | 260° |
| 2026-04-23 17:19 | 34.15859 | -78.48768 | 12542 ft | 326 kts | 261° |
| 2026-04-23 17:19 | 34.15432 | -78.51427 | 12301 ft | 311 kts | 261° |
| 2026-04-23 17:20 | 34.15031 | -78.53933 | 12181 ft | 295 kts | 261° |
| 2026-04-23 17:20 | 34.14284 | -78.58576 | 11684 ft | 275 kts | 261° |
| 2026-04-23 17:21 | 34.13563 | -78.63083 | 10789 ft | 274 kts | 261° |
| 2026-04-23 17:21 | 34.13206 | -78.65335 | 10371 ft | 272 kts | 261° |
| 2026-04-23 17:21 | 34.12496 | -78.69773 | 9512 ft | 268 kts | 261° |
| 2026-04-23 17:22 | 34.12146 | -78.72000 | 9030 ft | 269 kts | 261° |
| 2026-04-23 17:22 | 34.10548 | -78.75944 | 8159 ft | 268 kts | 231° |
| 2026-04-23 17:23 | 34.08516 | -78.78751 | 7480 ft | 265 kts | 231° |
| 2026-04-23 17:23 | 34.07295 | -78.80433 | 7043 ft | 265 kts | 231° |
| 2026-04-23 17:23 | 34.04890 | -78.83748 | 6250 ft | 261 kts | 231° |
| 2026-04-23 17:24 | 34.03692 | -78.85391 | 5844 ft | 259 kts | 231° |
| 2026-04-23 17:24 | 34.02511 | -78.87008 | 5439 ft | 258 kts | 231° |
| 2026-04-23 17:24 | 34.00120 | -78.90272 | 4975 ft | 257 kts | 231° |
| 2026-04-23 17:25 | 33.97402 | -78.92955 | 4567 ft | 252 kts | 208° |
| 2026-04-23 17:25 | 33.95834 | -78.93792 | 4453 ft | 240 kts | 206° |
| 2026-04-23 17:26 | 33.92904 | -78.95280 | 3981 ft | 226 kts | 206° |
| 2026-04-23 17:26 | 33.90084 | -78.96654 | 3616 ft | 209 kts | 206° |
| 2026-04-23 17:27 | 33.87405 | -78.97700 | 3233 ft | 208 kts | 180° |
| 2026-04-23 17:27 | 33.85989 | -78.97239 | 3111 ft | 211 kts | 166° |
| 2026-04-23 17:27 | 33.84545 | -78.96921 | 2971 ft | 209 kts | 176° |
| 2026-04-23 17:27 | 33.83115 | -78.96612 | 2890 ft | 212 kts | 172° |
| 2026-04-23 17:28 | 33.81657 | -78.96240 | 2728 ft | 214 kts | 172° |
| 2026-04-23 17:28 | 33.80242 | -78.95862 | 2470 ft | 207 kts | 172° |
| 2026-04-23 17:28 | 33.78853 | -78.95517 | 2095 ft | 200 kts | 174° |
| 2026-04-23 17:28 | 33.77496 | -78.95187 | 1731 ft | 197 kts | 173° |
| 2026-04-23 17:29 | 33.76184 | -78.94882 | 1420 ft | 189 kts | 174° |
| 2026-04-23 17:29 | 33.74945 | -78.94565 | 1257 ft | 171 kts | 173° |
| 2026-04-23 17:29 | 33.72757 | -78.94028 | 766 ft | 159 kts | 172° |
| 2026-04-23 17:30 | 33.71678 | -78.93759 | 569 ft | 157 kts | 173° |
| 2026-04-23 17:30 | 33.69522 | -78.93217 | 125 ft | 159 kts | 174° |
| 2026-04-23 17:30 | 33.68473 | -78.92956 | 30 ft | 141 kts | 171° |
| 2026-04-23 17:31 | 33.67796 | -78.92787 | 31 ft | 56 kts | 167° |
| 2026-04-23 17:31 | 33.67588 | -78.92686 | 30 ft | 28 kts | 142° |
| 2026-04-23 17:31 | 33.67479 | -78.92558 | 31 ft | 14 kts | 106° |
| 2026-04-23 17:31 | 33.67537 | -78.92521 | 29 ft | 11 kts | 347° |
| 2026-04-23 17:32 | 33.67616 | -78.92542 | 31 ft | 13 kts | 349° |
| 2026-04-23 17:32 | 33.67723 | -78.92567 | 31 ft | 18 kts | 349° |
| 2026-04-23 17:32 | 33.67852 | -78.92599 | 31 ft | 19 kts | 348° |
| 2026-04-23 17:32 | 33.67977 | -78.92630 | 31 ft | 18 kts | 349° |
| 2026-04-23 17:33 | 33.68099 | -78.92660 | 31 ft | 18 kts | 348° |
| 2026-04-23 17:33 | 33.68178 | -78.92587 | 31 ft | 17 kts | 77° |
| 2026-04-23 17:33 | 33.68237 | -78.92509 | 31 ft | 10 kts | 47° |
| 2026-04-23 17:33 | 33.68255 | -78.92441 | 29 ft | 8 kts | 95° |
| 2026-04-23 17:34 | 33.68253 | -78.92412 | 31 ft | 1 kts | 93° |